sensor_id;sensor_type;location;lat;lon;timestamp;pressure;altitude;pressure_sealevel;temperature;humidity
81937;BME280;71432;56.558;9.036;2024-01-07T00:01:11;102664.63;;;22.02;35.62
81937;BME280;71432;56.558;9.036;2024-01-07T00:03:36;102672.53;;;22.02;35.85
81937;BME280;71432;56.558;9.036;2024-01-07T00:06:02;102667.25;;;22.02;36.01
81937;BME280;71432;56.558;9.036;2024-01-07T00:08:27;102674.56;;;21.98;36.26
81937;BME280;71432;56.558;9.036;2024-01-07T00:10:53;102677.06;;;22.00;36.13
81937;BME280;71432;56.558;9.036;2024-01-07T00:13:18;102682.03;;;22.04;36.12
81937;BME280;71432;56.558;9.036;2024-01-07T00:15:43;102678.97;;;22.10;36.02
81937;BME280;71432;56.558;9.036;2024-01-07T00:18:09;102674.63;;;22.09;35.91
81937;BME280;71432;56.558;9.036;2024-01-07T00:20:34;102683.06;;;22.14;36.57
81937;BME280;71432;56.558;9.036;2024-01-07T00:23:00;102699.09;;;22.24;36.05
81937;BME280;71432;56.558;9.036;2024-01-07T00:25:26;102690.13;;;22.14;36.34
81937;BME280;71432;56.558;9.036;2024-01-07T00:27:51;102700.47;;;22.17;36.36
81937;BME280;71432;56.558;9.036;2024-01-07T00:30:20;102674.34;;;22.01;36.57
81937;BME280;71432;56.558;9.036;2024-01-07T00:32:46;102696.56;;;22.10;36.82
81937;BME280;71432;56.558;9.036;2024-01-07T00:35:11;102674.03;;;21.93;36.70
81937;BME280;71432;56.558;9.036;2024-01-07T00:37:36;102698.91;;;22.02;36.76
81937;BME280;71432;56.558;9.036;2024-01-07T00:40:03;102700.94;;;21.98;36.96
81937;BME280;71432;56.558;9.036;2024-01-07T00:42:29;102708.19;;;21.95;36.92
81937;BME280;71432;56.558;9.036;2024-01-07T00:44:54;102705.69;;;21.93;37.02
81937;BME280;71432;56.558;9.036;2024-01-07T00:47:19;102706.91;;;21.88;36.97
81937;BME280;71432;56.558;9.036;2024-01-07T00:49:45;102704.25;;;21.88;37.04
81937;BME280;71432;56.558;9.036;2024-01-07T00:52:10;102705.31;;;21.85;37.06
81937;BME280;71432;56.558;9.036;2024-01-07T00:54:36;102701.31;;;21.80;37.14
81937;BME280;71432;56.558;9.036;2024-01-07T00:57:02;102707.63;;;21.77;37.13
81937;BME280;71432;56.558;9.036;2024-01-07T00:59:28;102709.63;;;21.73;37.39
81937;BME280;71432;56.558;9.036;2024-01-07T01:01:54;102706.56;;;21.67;37.06
81937;BME280;71432;56.558;9.036;2024-01-07T01:04:20;102713.84;;;21.63;37.35
81937;BME280;71432;56.558;9.036;2024-01-07T01:06:46;102714.06;;;21.60;37.23
81937;BME280;71432;56.558;9.036;2024-01-07T01:09:11;102718.69;;;21.57;37.10
81937;BME280;71432;56.558;9.036;2024-01-07T01:11:36;102717.09;;;21.54;37.23
81937;BME280;71432;56.558;9.036;2024-01-07T01:14:01;102727.53;;;21.56;37.03
81937;BME280;71432;56.558;9.036;2024-01-07T01:16:27;102718.56;;;21.46;37.42
81937;BME280;71432;56.558;9.036;2024-01-07T01:18:52;102711.91;;;21.40;37.44
81937;BME280;71432;56.558;9.036;2024-01-07T01:21:17;102728.25;;;21.45;37.25
81937;BME280;71432;56.558;9.036;2024-01-07T01:23:44;102722.56;;;21.39;37.38
81937;BME280;71432;56.558;9.036;2024-01-07T01:26:09;102745.97;;;21.43;37.33
81937;BME280;71432;56.558;9.036;2024-01-07T01:28:34;102740.88;;;21.40;37.74
81937;BME280;71432;56.558;9.036;2024-01-07T01:31:00;102742.50;;;21.43;37.54
81937;BME280;71432;56.558;9.036;2024-01-07T01:33:25;102746.91;;;21.42;37.32
81937;BME280;71432;56.558;9.036;2024-01-07T01:35:50;102730.66;;;21.36;37.25
81937;BME280;71432;56.558;9.036;2024-01-07T01:38:16;102735.19;;;21.34;37.47
81937;BME280;71432;56.558;9.036;2024-01-07T01:40:42;102755.66;;;21.43;37.29
81937;BME280;71432;56.558;9.036;2024-01-07T01:43:07;102747.00;;;21.41;37.35
81937;BME280;71432;56.558;9.036;2024-01-07T01:45:32;102737.91;;;21.32;37.42
81937;BME280;71432;56.558;9.036;2024-01-07T01:47:58;102760.09;;;21.42;37.37
81937;BME280;71432;56.558;9.036;2024-01-07T01:50:24;102746.47;;;21.36;37.29
81937;BME280;71432;56.558;9.036;2024-01-07T01:52:49;102765.56;;;21.39;37.27
81937;BME280;71432;56.558;9.036;2024-01-07T01:55:16;102774.28;;;21.40;37.54
81937;BME280;71432;56.558;9.036;2024-01-07T01:57:41;102765.03;;;21.34;37.29
81937;BME280;71432;56.558;9.036;2024-01-07T02:00:08;102758.78;;;21.35;37.19
81937;BME280;71432;56.558;9.036;2024-01-07T02:02:34;102767.66;;;21.34;37.39
81937;BME280;71432;56.558;9.036;2024-01-07T02:05:03;102762.47;;;21.33;37.46
81937;BME280;71432;56.558;9.036;2024-01-07T02:07:30;102757.59;;;21.26;37.42
81937;BME280;71432;56.558;9.036;2024-01-07T02:09:55;102766.25;;;21.28;37.36
81937;BME280;71432;56.558;9.036;2024-01-07T02:12:21;102770.78;;;21.26;37.27
81937;BME280;71432;56.558;9.036;2024-01-07T02:14:46;102766.47;;;21.25;37.45
81937;BME280;71432;56.558;9.036;2024-01-07T02:17:11;102770.13;;;21.23;37.29
81937;BME280;71432;56.558;9.036;2024-01-07T02:19:37;102768.00;;;21.15;37.37
81937;BME280;71432;56.558;9.036;2024-01-07T02:22:03;102768.94;;;21.14;37.50
81937;BME280;71432;56.558;9.036;2024-01-07T02:24:28;102788.88;;;21.18;37.45
81937;BME280;71432;56.558;9.036;2024-01-07T02:26:53;102774.00;;;21.17;37.59
81937;BME280;71432;56.558;9.036;2024-01-07T02:29:19;102781.91;;;21.17;37.45
81937;BME280;71432;56.558;9.036;2024-01-07T02:31:44;102765.31;;;21.03;37.56
81937;BME280;71432;56.558;9.036;2024-01-07T02:34:10;102762.38;;;21.07;37.49
81937;BME280;71432;56.558;9.036;2024-01-07T02:36:36;102790.88;;;21.15;37.50
81937;BME280;71432;56.558;9.036;2024-01-07T02:39:01;102788.16;;;21.16;37.67
81937;BME280;71432;56.558;9.036;2024-01-07T02:41:26;102796.88;;;21.17;37.54
81937;BME280;71432;56.558;9.036;2024-01-07T02:43:52;102792.44;;;21.17;37.49
81937;BME280;71432;56.558;9.036;2024-01-07T02:46:17;102796.88;;;21.17;37.41
81937;BME280;71432;56.558;9.036;2024-01-07T02:48:42;102792.44;;;21.17;37.52
81937;BME280;71432;56.558;9.036;2024-01-07T02:51:08;102797.63;;;21.19;37.53
81937;BME280;71432;56.558;9.036;2024-01-07T02:53:34;102797.84;;;21.16;37.65
81937;BME280;71432;56.558;9.036;2024-01-07T02:55:59;102784.94;;;21.11;37.39
81937;BME280;71432;56.558;9.036;2024-01-07T02:58:25;102789.81;;;21.17;37.55
81937;BME280;71432;56.558;9.036;2024-01-07T03:00:50;102787.66;;;21.10;37.47
81937;BME280;71432;56.558;9.036;2024-01-07T03:03:16;102801.31;;;21.16;37.48
81937;BME280;71432;56.558;9.036;2024-01-07T03:05:41;102800.47;;;21.16;37.33
81937;BME280;71432;56.558;9.036;2024-01-07T03:08:06;102811.94;;;21.15;37.44
81937;BME280;71432;56.558;9.036;2024-01-07T03:10:32;102804.13;;;21.13;37.61
81937;BME280;71432;56.558;9.036;2024-01-07T03:12:58;102804.28;;;21.10;37.40
81937;BME280;71432;56.558;9.036;2024-01-07T03:15:23;102812.19;;;21.10;37.52
81937;BME280;71432;56.558;9.036;2024-01-07T03:17:48;102814.91;;;21.09;37.59
81937;BME280;71432;56.558;9.036;2024-01-07T03:20:14;102816.72;;;21.08;37.56
81937;BME280;71432;56.558;9.036;2024-01-07T03:22:39;102818.59;;;21.06;37.63
81937;BME280;71432;56.558;9.036;2024-01-07T03:25:05;102817.84;;;21.04;37.69
81937;BME280;71432;56.558;9.036;2024-01-07T03:27:30;102817.00;;;21.04;37.47
81937;BME280;71432;56.558;9.036;2024-01-07T03:29:56;102819.84;;;21.01;37.62
81937;BME280;71432;56.558;9.036;2024-01-07T03:32:21;102820.88;;;20.98;37.57
81937;BME280;71432;56.558;9.036;2024-01-07T03:34:46;102827.94;;;20.98;37.58
81937;BME280;71432;56.558;9.036;2024-01-07T03:37:12;102821.91;;;20.96;37.73
81937;BME280;71432;56.558;9.036;2024-01-07T03:39:37;102822.84;;;20.95;37.64
81937;BME280;71432;56.558;9.036;2024-01-07T03:42:02;102815.34;;;20.89;37.23
81937;BME280;71432;56.558;9.036;2024-01-07T03:44:28;102814.38;;;20.90;37.63
81937;BME280;71432;56.558;9.036;2024-01-07T03:46:53;102818.34;;;20.97;37.24
81937;BME280;71432;56.558;9.036;2024-01-07T03:49:19;102825.41;;;20.96;37.55
81937;BME280;71432;56.558;9.036;2024-01-07T03:51:44;102829.72;;;20.97;37.59
81937;BME280;71432;56.558;9.036;2024-01-07T03:54:09;102819.28;;;20.96;37.37
81937;BME280;71432;56.558;9.036;2024-01-07T03:56:35;102826.16;;;20.98;37.59
81937;BME280;71432;56.558;9.036;2024-01-07T03:59:00;102828.78;;;20.98;37.95
81937;BME280;71432;56.558;9.036;2024-01-07T04:01:25;102830.44;;;20.99;37.57
81937;BME280;71432;56.558;9.036;2024-01-07T04:03:51;102824.63;;;20.94;37.46
81937;BME280;71432;56.558;9.036;2024-01-07T04:06:16;102815.16;;;20.92;37.57
81937;BME280;71432;56.558;9.036;2024-01-07T04:08:41;102822.84;;;20.95;37.55
81937;BME280;71432;56.558;9.036;2024-01-07T04:11:07;102836.84;;;20.95;37.38
81937;BME280;71432;56.558;9.036;2024-01-07T04:13:32;102826.44;;;20.94;37.44
81937;BME280;71432;56.558;9.036;2024-01-07T04:15:57;102809.69;;;20.80;37.44
81937;BME280;71432;56.558;9.036;2024-01-07T04:18:23;102830.09;;;20.91;37.30
81937;BME280;71432;56.558;9.036;2024-01-07T04:20:48;102834.50;;;20.91;37.46
81937;BME280;71432;56.558;9.036;2024-01-07T04:23:13;102832.81;;;20.90;37.26
81937;BME280;71432;56.558;9.036;2024-01-07T04:25:39;102841.69;;;20.89;37.71
81937;BME280;71432;56.558;9.036;2024-01-07T04:28:06;102830.47;;;20.85;37.47
81937;BME280;71432;56.558;9.036;2024-01-07T04:30:31;102838.56;;;20.82;37.53
81937;BME280;71432;56.558;9.036;2024-01-07T04:32:56;102838.56;;;20.82;37.49
81937;BME280;71432;56.558;9.036;2024-01-07T04:35:22;102853.44;;;20.83;37.82
81937;BME280;71432;56.558;9.036;2024-01-07T04:37:47;102831.38;;;20.71;37.54
81937;BME280;71432;56.558;9.036;2024-01-07T04:40:12;102849.47;;;20.76;37.51
81937;BME280;71432;56.558;9.036;2024-01-07T04:42:38;102852.22;;;20.74;37.56
81937;BME280;71432;56.558;9.036;2024-01-07T04:45:03;102859.06;;;20.77;37.57
81937;BME280;71432;56.558;9.036;2024-01-07T04:47:30;102863.41;;;20.78;37.52
81937;BME280;71432;56.558;9.036;2024-01-07T04:49:57;102860.75;;;20.78;37.61
81937;BME280;71432;56.558;9.036;2024-01-07T04:52:23;102847.97;;;20.72;37.53
81937;BME280;71432;56.558;9.036;2024-01-07T04:54:53;102845.63;;;20.67;37.86
81937;BME280;71432;56.558;9.036;2024-01-07T04:57:19;102869.50;;;20.78;37.31
81937;BME280;71432;56.558;9.036;2024-01-07T04:59:45;102877.13;;;20.83;37.48
81937;BME280;71432;56.558;9.036;2024-01-07T05:02:11;102872.72;;;20.83;37.42
81937;BME280;71432;56.558;9.036;2024-01-07T05:04:36;102874.41;;;20.84;37.29
81937;BME280;71432;56.558;9.036;2024-01-07T05:07:02;102876.47;;;20.79;37.35
81937;BME280;71432;56.558;9.036;2024-01-07T05:09:28;102877.78;;;20.86;37.29
81937;BME280;71432;56.558;9.036;2024-01-07T05:11:53;102859.91;;;20.77;37.38
81937;BME280;71432;56.558;9.036;2024-01-07T05:14:18;102867.63;;;20.80;37.49
81937;BME280;71432;56.558;9.036;2024-01-07T05:16:44;102871.78;;;20.84;37.41
81937;BME280;71432;56.558;9.036;2024-01-07T05:19:09;102875.34;;;20.83;37.42
81937;BME280;71432;56.558;9.036;2024-01-07T05:21:35;102881.53;;;20.82;37.31
81937;BME280;71432;56.558;9.036;2024-01-07T05:24:00;102869.72;;;20.75;37.38
81937;BME280;71432;56.558;9.036;2024-01-07T05:26:25;102867.25;;;20.72;37.53
81937;BME280;71432;56.558;9.036;2024-01-07T05:28:50;102870.66;;;20.74;37.40
81937;BME280;71432;56.558;9.036;2024-01-07T05:31:18;102867.53;;;20.68;37.54
81937;BME280;71432;56.558;9.036;2024-01-07T05:33:44;102890.56;;;20.78;37.43
81937;BME280;71432;56.558;9.036;2024-01-07T05:36:11;102882.03;;;20.75;37.37
81937;BME280;71432;56.558;9.036;2024-01-07T05:38:36;102871.66;;;20.72;37.35
81937;BME280;71432;56.558;9.036;2024-01-07T05:41:02;102880.41;;;20.72;37.17
81937;BME280;71432;56.558;9.036;2024-01-07T05:43:27;102884.94;;;20.70;37.37
81937;BME280;71432;56.558;9.036;2024-01-07T05:45:53;102882.31;;;20.70;37.48
81937;BME280;71432;56.558;9.036;2024-01-07T05:48:20;102890.38;;;20.67;37.43
81937;BME280;71432;56.558;9.036;2024-01-07T05:50:46;102891.97;;;20.70;37.37
81937;BME280;71432;56.558;9.036;2024-01-07T05:53:11;102899.88;;;20.70;37.55
81937;BME280;71432;56.558;9.036;2024-01-07T05:55:36;102914.63;;;20.72;37.41
81937;BME280;71432;56.558;9.036;2024-01-07T05:58:02;102906.84;;;20.71;37.37
81937;BME280;71432;56.558;9.036;2024-01-07T06:00:27;102913.88;;;20.70;37.25
81937;BME280;71432;56.558;9.036;2024-01-07T06:02:52;102890.19;;;20.56;37.48
81937;BME280;71432;56.558;9.036;2024-01-07T06:05:18;102906.16;;;20.67;37.44
81937;BME280;71432;56.558;9.036;2024-01-07T06:07:43;102926.00;;;20.73;37.42
81937;BME280;71432;56.558;9.036;2024-01-07T06:10:08;102920.09;;;20.69;37.32
81937;BME280;71432;56.558;9.036;2024-01-07T06:12:34;102915.59;;;20.71;37.19
81937;BME280;71432;56.558;9.036;2024-01-07T06:14:59;102921.66;;;20.72;37.36
81937;BME280;71432;56.558;9.036;2024-01-07T06:17:24;102916.78;;;20.66;37.28
81937;BME280;71432;56.558;9.036;2024-01-07T06:19:50;102926.13;;;20.71;37.28
81937;BME280;71432;56.558;9.036;2024-01-07T06:22:15;102938.31;;;20.72;37.13
81937;BME280;71432;56.558;9.036;2024-01-07T06:24:40;102939.34;;;20.70;37.30
81937;BME280;71432;56.558;9.036;2024-01-07T06:27:06;102938.59;;;20.68;37.38
81937;BME280;71432;56.558;9.036;2024-01-07T06:29:31;102942.06;;;20.68;37.42
81937;BME280;71432;56.558;9.036;2024-01-07T06:31:56;102956.00;;;20.70;37.47
81937;BME280;71432;56.558;9.036;2024-01-07T06:34:22;102945.91;;;20.63;37.11
81937;BME280;71432;56.558;9.036;2024-01-07T06:36:48;102955.34;;;20.67;37.19
81937;BME280;71432;56.558;9.036;2024-01-07T06:39:13;102946.97;;;20.60;37.41
81937;BME280;71432;56.558;9.036;2024-01-07T06:41:38;102961.44;;;20.67;37.31
81937;BME280;71432;56.558;9.036;2024-01-07T06:44:04;102966.03;;;20.64;37.37
81937;BME280;71432;56.558;9.036;2024-01-07T06:46:29;102969.44;;;20.66;37.62
81937;BME280;71432;56.558;9.036;2024-01-07T06:48:55;102968.66;;;20.64;37.29
81937;BME280;71432;56.558;9.036;2024-01-07T06:51:20;102969.72;;;20.61;37.47
81937;BME280;71432;56.558;9.036;2024-01-07T06:53:45;102960.13;;;20.60;37.69
81937;BME280;71432;56.558;9.036;2024-01-07T06:56:10;102972.34;;;20.61;37.54
81937;BME280;71432;56.558;9.036;2024-01-07T06:58:36;102969.78;;;20.60;37.09
81937;BME280;71432;56.558;9.036;2024-01-07T07:01:01;102962.09;;;20.57;37.14
81937;BME280;71432;56.558;9.036;2024-01-07T07:03:27;102969.53;;;20.64;37.66
81937;BME280;71432;56.558;9.036;2024-01-07T07:05:53;102974.03;;;20.62;37.79
81937;BME280;71432;56.558;9.036;2024-01-07T07:08:18;102975.44;;;20.68;37.31
81937;BME280;71432;56.558;9.036;2024-01-07T07:10:43;102972.16;;;20.64;37.19
81937;BME280;71432;56.558;9.036;2024-01-07T07:13:09;102987.47;;;20.72;37.20
81937;BME280;71432;56.558;9.036;2024-01-07T07:15:34;102986.66;;;20.71;37.42
81937;BME280;71432;56.558;9.036;2024-01-07T07:18:01;102979.84;;;20.67;37.21
81937;BME280;71432;56.558;9.036;2024-01-07T07:20:26;102988.31;;;20.72;37.20
81937;BME280;71432;56.558;9.036;2024-01-07T07:22:51;102982.31;;;20.70;37.28
81937;BME280;71432;56.558;9.036;2024-01-07T07:25:17;103001.97;;;20.79;37.51
81937;BME280;71432;56.558;9.036;2024-01-07T07:27:42;103006.47;;;20.77;37.22
81937;BME280;71432;56.558;9.036;2024-01-07T07:30:08;103007.25;;;20.79;37.29
81937;BME280;71432;56.558;9.036;2024-01-07T07:32:34;103001.97;;;20.79;37.36
81937;BME280;71432;56.558;9.036;2024-01-07T07:35:00;103009.88;;;20.79;37.23
81937;BME280;71432;56.558;9.036;2024-01-07T07:37:26;102997.91;;;20.73;37.25
81937;BME280;71432;56.558;9.036;2024-01-07T07:39:51;103009.88;;;20.79;37.33
81937;BME280;71432;56.558;9.036;2024-01-07T07:42:16;103014.22;;;20.80;37.18
81937;BME280;71432;56.558;9.036;2024-01-07T07:44:41;103013.44;;;20.78;37.36
81937;BME280;71432;56.558;9.036;2024-01-07T07:47:07;103019.56;;;20.78;37.29
81937;BME280;71432;56.558;9.036;2024-01-07T07:49:33;103019.56;;;20.78;37.36
81937;BME280;71432;56.558;9.036;2024-01-07T07:51:59;103012.59;;;20.77;37.25
81937;BME280;71432;56.558;9.036;2024-01-07T07:54:24;103020.41;;;20.79;37.45
81937;BME280;71432;56.558;9.036;2024-01-07T07:56:50;103011.09;;;20.73;37.31
81937;BME280;71432;56.558;9.036;2024-01-07T07:59:15;103014.50;;;20.75;37.53
81937;BME280;71432;56.558;9.036;2024-01-07T08:01:40;103031.88;;;20.78;37.43
81937;BME280;71432;56.558;9.036;2024-01-07T08:04:06;103026.53;;;20.79;37.47
81937;BME280;71432;56.558;9.036;2024-01-07T08:06:31;103027.38;;;20.80;37.34
81937;BME280;71432;56.558;9.036;2024-01-07T08:08:56;103037.78;;;20.81;37.32
81937;BME280;71432;56.558;9.036;2024-01-07T08:11:22;103036.00;;;20.82;37.22
81937;BME280;71432;56.558;9.036;2024-01-07T08:13:47;103041.19;;;20.83;37.46
81937;BME280;71432;56.558;9.036;2024-01-07T08:16:13;103036.88;;;20.82;37.34
81937;BME280;71432;56.558;9.036;2024-01-07T08:18:38;103047.31;;;20.84;37.44
81937;BME280;71432;56.558;9.036;2024-01-07T08:21:04;103044.94;;;20.79;37.18
81937;BME280;71432;56.558;9.036;2024-01-07T08:23:29;103049.94;;;20.84;37.25
81937;BME280;71432;56.558;9.036;2024-01-07T08:25:54;103035.34;;;20.78;37.26
81937;BME280;71432;56.558;9.036;2024-01-07T08:28:20;103052.66;;;20.82;37.35
81937;BME280;71432;56.558;9.036;2024-01-07T08:30:46;103061.06;;;20.89;37.38
81937;BME280;71432;56.558;9.036;2024-01-07T08:33:11;103048.16;;;20.84;37.35
81937;BME280;71432;56.558;9.036;2024-01-07T08:35:37;103060.28;;;20.87;37.30
81937;BME280;71432;56.558;9.036;2024-01-07T08:38:02;103061.13;;;20.88;37.40
81937;BME280;71432;56.558;9.036;2024-01-07T08:40:28;103066.41;;;20.88;37.28
81937;BME280;71432;56.558;9.036;2024-01-07T08:42:54;103069.69;;;20.91;37.20
81937;BME280;71432;56.558;9.036;2024-01-07T08:45:20;103079.22;;;20.94;37.31
81937;BME280;71432;56.558;9.036;2024-01-07T08:47:46;103063.78;;;20.88;37.20
81937;BME280;71432;56.558;9.036;2024-01-07T08:50:11;103081.75;;;20.95;37.20
81937;BME280;71432;56.558;9.036;2024-01-07T08:52:37;103086.72;;;21.00;37.29
81937;BME280;71432;56.558;9.036;2024-01-07T08:55:03;103087.66;;;20.99;37.47
81937;BME280;71432;56.558;9.036;2024-01-07T08:57:31;103091.91;;;21.01;37.15
81937;BME280;71432;56.558;9.036;2024-01-07T08:59:56;103088.44;;;21.01;37.08
81937;BME280;71432;56.558;9.036;2024-01-07T09:02:22;103096.34;;;21.01;37.16
81937;BME280;71432;56.558;9.036;2024-01-07T09:04:47;103096.13;;;21.19;37.01
81937;BME280;71432;56.558;9.036;2024-01-07T09:07:12;103096.06;;;21.63;36.38
81937;BME280;71432;56.558;9.036;2024-01-07T09:09:37;103107.09;;;21.98;35.28
81937;BME280;71432;56.558;9.036;2024-01-07T09:12:03;103098.59;;;22.07;34.98
81937;BME280;71432;56.558;9.036;2024-01-07T09:14:29;103109.72;;;22.39;34.66
81937;BME280;71432;56.558;9.036;2024-01-07T09:16:55;103113.50;;;22.62;34.60
81937;BME280;71432;56.558;9.036;2024-01-07T09:19:20;103114.50;;;22.74;34.35
81937;BME280;71432;56.558;9.036;2024-01-07T09:21:45;103118.63;;;22.78;34.41
81937;BME280;71432;56.558;9.036;2024-01-07T09:24:11;103118.88;;;23.00;33.74
81937;BME280;71432;56.558;9.036;2024-01-07T09:26:36;103116.06;;;23.03;33.95
81937;BME280;71432;56.558;9.036;2024-01-07T09:29:01;103120.19;;;22.53;34.39
81937;BME280;71432;56.558;9.036;2024-01-07T09:31:27;103111.50;;;22.12;35.06
81937;BME280;71432;56.558;9.036;2024-01-07T09:33:52;103119.97;;;21.89;35.74
81937;BME280;71432;56.558;9.036;2024-01-07T09:36:18;103133.53;;;21.83;36.04
81937;BME280;71432;56.558;9.036;2024-01-07T09:38:43;103126.81;;;21.63;36.13
81937;BME280;71432;56.558;9.036;2024-01-07T09:41:09;103146.97;;;21.64;36.09
81937;BME280;71432;56.558;9.036;2024-01-07T09:43:35;103151.69;;;21.59;36.13
81937;BME280;71432;56.558;9.036;2024-01-07T09:46:02;103154.72;;;21.53;36.46
81937;BME280;71432;56.558;9.036;2024-01-07T09:48:28;103145.38;;;21.47;36.53
81937;BME280;71432;56.558;9.036;2024-01-07T09:50:55;103148.28;;;21.43;36.69
81937;BME280;71432;56.558;9.036;2024-01-07T09:53:25;103130.94;;;21.24;36.68
81937;BME280;71432;56.558;9.036;2024-01-07T09:56:16;103152.13;;;21.37;36.74
81937;BME280;71432;56.558;9.036;2024-01-07T09:58:45;103163.81;;;21.33;36.78
81937;BME280;71432;56.558;9.036;2024-01-07T10:01:13;103167.38;;;21.32;36.83
81937;BME280;71432;56.558;9.036;2024-01-07T10:03:39;103156.53;;;21.22;37.01
81937;BME280;71432;56.558;9.036;2024-01-07T10:06:04;103155.00;;;21.18;37.10
81937;BME280;71432;56.558;9.036;2024-01-07T10:08:30;103167.91;;;21.23;37.07
81937;BME280;71432;56.558;9.036;2024-01-07T10:10:55;103173.25;;;21.21;37.15
81937;BME280;71432;56.558;9.036;2024-01-07T10:13:22;103161.91;;;21.21;37.11
81937;BME280;71432;56.558;9.036;2024-01-07T10:15:47;103168.94;;;21.20;37.23
81937;BME280;71432;56.558;9.036;2024-01-07T10:18:13;103173.38;;;21.20;37.45
81937;BME280;71432;56.558;9.036;2024-01-07T10:20:39;103172.59;;;21.18;37.26
81937;BME280;71432;56.558;9.036;2024-01-07T10:23:04;103175.22;;;21.18;37.37
81937;BME280;71432;56.558;9.036;2024-01-07T10:25:32;103163.34;;;21.11;37.37
81937;BME280;71432;56.558;9.036;2024-01-07T10:28:01;103173.44;;;21.18;37.43
81937;BME280;71432;56.558;9.036;2024-01-07T10:30:28;103191.16;;;21.16;37.42
81937;BME280;71432;56.558;9.036;2024-01-07T10:32:59;103178.06;;;21.15;37.46
81937;BME280;71432;56.558;9.036;2024-01-07T10:35:32;103179.00;;;21.14;37.57
81937;BME280;71432;56.558;9.036;2024-01-07T10:37:59;103178.22;;;21.12;37.76
81937;BME280;71432;56.558;9.036;2024-01-07T10:40:26;103180.00;;;21.11;37.73
81937;BME280;71432;56.558;9.036;2024-01-07T10:42:52;103179.91;;;21.13;37.86
81937;BME280;71432;56.558;9.036;2024-01-07T10:45:19;103182.63;;;21.11;37.82
81937;BME280;71432;56.558;9.036;2024-01-07T10:47:48;103196.72;;;21.10;37.53
81937;BME280;71432;56.558;9.036;2024-01-07T10:50:16;103180.78;;;20.98;37.46
81937;BME280;71432;56.558;9.036;2024-01-07T10:52:42;103190.22;;;21.02;37.30
81937;BME280;71432;56.558;9.036;2024-01-07T10:55:09;103190.22;;;21.02;37.40
81937;BME280;71432;56.558;9.036;2024-01-07T10:57:44;103187.66;;;21.00;37.41
81937;BME280;71432;56.558;9.036;2024-01-07T11:00:13;103189.94;;;21.06;37.32
81937;BME280;71432;56.558;9.036;2024-01-07T11:05:29;103199.97;;;21.15;37.59
81937;BME280;71432;56.558;9.036;2024-01-07T11:08:03;103185.88;;;21.60;37.05
81937;BME280;71432;56.558;9.036;2024-01-07T11:10:44;103197.63;;;21.55;37.04
81937;BME280;71432;56.558;9.036;2024-01-07T11:13:31;103192.53;;;21.52;37.00
81937;BME280;71432;56.558;9.036;2024-01-07T11:15:56;103184.72;;;21.50;37.31
81937;BME280;71432;56.558;9.036;2024-01-07T11:18:23;103193.66;;;21.48;37.42
81937;BME280;71432;56.558;9.036;2024-01-07T11:20:49;103187.56;;;21.61;38.08
81937;BME280;71432;56.558;9.036;2024-01-07T11:23:30;103177.59;;;21.52;37.61
81937;BME280;71432;56.558;9.036;2024-01-07T11:25:57;103179.16;;;21.55;37.46
81937;BME280;71432;56.558;9.036;2024-01-07T11:28:42;103209.69;;;21.59;37.45
81937;BME280;71432;56.558;9.036;2024-01-07T11:31:08;103201.47;;;21.49;37.36
81937;BME280;71432;56.558;9.036;2024-01-07T11:33:36;103208.09;;;21.56;37.83
81937;BME280;71432;56.558;9.036;2024-01-07T11:36:03;103204.31;;;21.60;37.82
81937;BME280;71432;56.558;9.036;2024-01-07T11:38:29;103208.66;;;21.61;37.48
81937;BME280;71432;56.558;9.036;2024-01-07T11:40:56;103208.47;;;21.64;37.47
81937;BME280;71432;56.558;9.036;2024-01-07T11:43:21;103201.59;;;21.62;37.83
81937;BME280;71432;56.558;9.036;2024-01-07T11:45:49;103208.28;;;21.67;37.61
81937;BME280;71432;56.558;9.036;2024-01-07T11:48:15;103153.84;;;21.38;37.58
81937;BME280;71432;56.558;9.036;2024-01-07T11:50:41;103183.44;;;21.57;37.62
81937;BME280;71432;56.558;9.036;2024-01-07T11:53:07;103195.09;;;21.67;38.19
81937;BME280;71432;56.558;9.036;2024-01-07T11:55:32;103193.16;;;21.71;37.79
81937;BME280;71432;56.558;9.036;2024-01-07T11:58:03;103194.94;;;21.70;38.24
81937;BME280;71432;56.558;9.036;2024-01-07T12:00:33;103203.78;;;21.84;38.25
81937;BME280;71432;56.558;9.036;2024-01-07T12:03:02;103193.97;;;21.71;37.62
81937;BME280;71432;56.558;9.036;2024-01-07T12:05:28;103195.47;;;21.90;37.83
81937;BME280;71432;56.558;9.036;2024-01-07T12:07:54;103209.44;;;21.92;37.75
81937;BME280;71432;56.558;9.036;2024-01-07T12:10:20;103187.47;;;21.77;37.52
81937;BME280;71432;56.558;9.036;2024-01-07T12:12:46;103205.91;;;21.93;38.00
81937;BME280;71432;56.558;9.036;2024-01-07T12:15:12;103220.84;;;21.92;37.91
81937;BME280;71432;56.558;9.036;2024-01-07T12:17:40;103186.19;;;21.84;37.42
81937;BME280;71432;56.558;9.036;2024-01-07T12:20:07;103186.91;;;21.86;37.62
81937;BME280;71432;56.558;9.036;2024-01-07T12:22:39;103212.31;;;22.03;37.65
81937;BME280;71432;56.558;9.036;2024-01-07T12:25:06;103215.69;;;22.05;37.67
81937;BME280;71432;56.558;9.036;2024-01-07T12:27:32;103220.19;;;22.17;38.24
81937;BME280;71432;56.558;9.036;2024-01-07T12:30:02;103228.09;;;22.17;37.82
81937;BME280;71432;56.558;9.036;2024-01-07T12:32:28;103222.09;;;22.15;37.68
81937;BME280;71432;56.558;9.036;2024-01-07T12:34:59;103226.78;;;22.24;37.65
81937;BME280;71432;56.558;9.036;2024-01-07T12:37:26;103221.22;;;22.43;37.94
81937;BME280;71432;56.558;9.036;2024-01-07T12:39:52;103225.38;;;22.33;37.80
81937;BME280;71432;56.558;9.036;2024-01-07T12:42:18;103209.63;;;22.31;37.51
81937;BME280;71432;56.558;9.036;2024-01-07T12:44:45;103217.25;;;22.22;37.78
81937;BME280;71432;56.558;9.036;2024-01-07T12:47:10;103203.59;;;22.29;37.64